createdAt,value
2018-05-23T00:02:26.789Z,99.90
2018-05-23T00:04:54.269Z,99.90
2018-05-23T00:07:21.722Z,99.90
2018-05-23T00:09:49.570Z,99.90
2018-05-23T00:12:17.024Z,99.90
2018-05-23T00:14:45.236Z,99.90
2018-05-23T00:17:12.682Z,99.90
2018-05-23T00:19:40.148Z,99.90
2018-05-23T00:22:07.609Z,99.90
2018-05-23T00:24:35.809Z,99.90
2018-05-23T00:27:03.249Z,99.90
2018-05-23T00:29:30.697Z,99.90
2018-05-23T00:31:58.143Z,99.90
2018-05-23T00:34:25.972Z,99.90
2018-05-23T00:36:53.812Z,99.90
2018-05-23T00:39:22.767Z,99.90
2018-05-23T00:41:50.969Z,99.90
2018-05-23T00:44:18.417Z,99.90
2018-05-23T00:46:45.849Z,99.90
2018-05-23T00:49:13.305Z,99.90
2018-05-23T00:51:40.789Z,99.90
2018-05-23T00:54:08.238Z,99.90
2018-05-23T00:56:35.686Z,99.90
2018-05-23T00:59:03.136Z,99.90
2018-05-23T01:01:30.588Z,99.90
2018-05-23T01:03:58.780Z,99.90
2018-05-23T01:06:26.239Z,99.90
2018-05-23T01:08:54.448Z,99.90
2018-05-23T01:11:22.372Z,99.90
2018-05-23T01:13:49.823Z,99.90
2018-05-23T01:16:17.276Z,99.90
2018-05-23T01:18:45.482Z,99.90
2018-05-23T01:21:12.942Z,99.90
2018-05-23T01:23:40.381Z,99.90
2018-05-23T01:26:07.827Z,99.90
2018-05-23T01:28:36.060Z,99.90
2018-05-23T01:31:03.516Z,99.90
2018-05-23T01:33:30.960Z,99.90
2018-05-23T01:35:58.429Z,99.90
2018-05-23T01:38:25.872Z,99.90
2018-05-23T01:40:54.089Z,99.90
2018-05-23T01:43:22.308Z,99.90
2018-05-23T01:45:49.782Z,99.90
2018-05-23T01:48:17.617Z,99.90
2018-05-23T01:50:45.077Z,99.90
2018-05-23T01:53:12.528Z,99.90
2018-05-23T01:58:09.557Z,99.90
2018-05-23T02:00:37.013Z,99.90
2018-05-23T02:03:04.844Z,99.90
2018-05-23T02:05:33.061Z,99.90
2018-05-23T02:08:00.586Z,99.90
2018-05-23T02:10:28.798Z,99.90
2018-05-23T02:12:56.260Z,99.90
2018-05-23T02:15:24.478Z,99.90
2018-05-23T02:20:21.128Z,99.90
2018-05-23T02:22:49.340Z,99.90
2018-05-23T02:25:16.789Z,99.90
2018-05-23T02:27:44.999Z,99.90
2018-05-23T02:30:12.440Z,99.90
2018-05-23T02:32:40.656Z,99.90
2018-05-23T02:35:08.888Z,99.90
2018-05-23T02:37:36.330Z,99.90
2018-05-23T02:40:03.773Z,99.90
2018-05-23T02:42:31.249Z,99.90
2018-05-23T02:44:58.693Z,99.90
2018-05-23T02:49:55.709Z,99.90
2018-05-23T02:52:23.158Z,99.90
2018-05-23T02:54:50.596Z,99.90
2018-05-23T02:57:19.148Z,99.90
2018-05-23T02:59:46.594Z,99.90
2018-05-23T03:02:14.051Z,99.90
2018-05-23T03:04:41.512Z,99.90
2018-05-23T03:07:08.973Z,99.90
2018-05-23T03:09:37.556Z,99.90
2018-05-23T03:12:05.421Z,99.90
2018-05-23T03:14:33.262Z,99.90
2018-05-23T03:17:00.709Z,99.90
2018-05-23T03:19:28.165Z,99.90
2018-05-23T03:21:55.642Z,99.90
2018-05-23T03:24:23.832Z,99.90
2018-05-23T03:26:51.296Z,99.90
2018-05-23T03:29:18.748Z,99.90
2018-05-23T03:31:46.184Z,99.90
2018-05-23T03:34:14.024Z,99.90
2018-05-23T03:36:41.484Z,99.90
2018-05-23T03:39:08.921Z,99.90
2018-05-23T03:41:37.462Z,99.90
2018-05-23T03:44:04.910Z,99.90
2018-05-23T03:46:32.352Z,99.90
2018-05-23T03:49:00.876Z,99.90
2018-05-23T03:51:28.318Z,99.90
2018-05-23T03:53:56.548Z,99.90
2018-05-23T03:56:24.026Z,99.90
2018-05-23T03:58:51.474Z,99.90
2018-05-23T04:01:30.735Z,99.90
2018-05-23T04:04:10.028Z,99.90
2018-05-23T04:06:49.220Z,99.90
2018-05-23T04:09:16.658Z,99.90
2018-05-23T04:11:44.096Z,99.90
2018-05-23T04:14:11.552Z,99.90
2018-05-23T04:16:39.001Z,99.90
2018-05-23T04:19:07.216Z,99.90
2018-05-23T04:21:35.442Z,99.90
2018-05-23T04:24:02.963Z,99.90
2018-05-23T04:26:31.094Z,99.90
2018-05-23T04:28:58.760Z,99.90
2018-05-23T04:31:26.219Z,99.90
2018-05-23T04:33:54.059Z,99.90
2018-05-23T04:36:21.520Z,99.90
2018-05-23T04:41:17.769Z,99.90
2018-05-23T04:43:45.228Z,99.90
2018-05-23T04:46:12.681Z,99.90
2018-05-23T04:48:40.174Z,99.90
2018-05-23T04:51:08.341Z,99.90
2018-05-23T04:56:04.969Z,99.90
2018-05-23T04:58:33.204Z,99.90
2018-05-23T05:01:00.648Z,99.90
2018-05-23T05:03:28.089Z,99.90
2018-05-23T05:05:55.933Z,99.90
2018-05-23T05:08:23.369Z,99.90
2018-05-23T05:10:50.809Z,99.90
2018-05-23T05:13:19.028Z,99.90
2018-05-23T05:15:47.225Z,99.90
2018-05-23T05:18:14.669Z,99.90
2018-05-23T05:20:42.119Z,99.90
2018-05-23T05:23:10.329Z,99.90
2018-05-23T05:25:37.756Z,99.90
2018-05-23T05:28:05.207Z,99.90
2018-05-23T05:30:33.045Z,99.90
2018-05-23T05:33:00.486Z,99.90
2018-05-23T05:35:29.458Z,99.90
2018-05-23T05:37:56.913Z,99.90
2018-05-23T05:40:24.382Z,99.90
2018-05-23T05:42:51.857Z,99.90
2018-05-23T05:45:19.301Z,99.90
2018-05-23T05:47:46.749Z,99.90
2018-05-23T05:50:14.193Z,99.90
2018-05-23T05:52:42.026Z,99.90
2018-05-23T05:55:10.234Z,99.90
2018-05-23T05:57:37.717Z,99.90
2018-05-23T06:00:05.171Z,99.90
2018-05-23T06:05:01.423Z,99.90
2018-05-23T06:07:28.856Z,99.90
2018-05-23T06:09:56.336Z,99.90
2018-05-23T06:12:24.515Z,99.90
2018-05-23T06:14:51.961Z,99.90
2018-05-23T06:17:19.410Z,99.90
2018-05-23T06:19:46.862Z,99.90
2018-05-23T06:22:14.366Z,99.90
2018-05-23T06:24:41.747Z,99.90
2018-05-23T06:27:09.201Z,99.90
2018-05-23T06:29:36.642Z,99.90
2018-05-23T06:32:04.082Z,99.90
2018-05-23T06:34:31.540Z,99.90
2018-05-23T06:36:59.750Z,99.90
2018-05-23T06:39:27.194Z,99.90
2018-05-23T06:41:54.665Z,99.90
2018-05-23T06:44:22.510Z,99.90
2018-05-23T06:46:49.965Z,99.90
2018-05-23T06:49:17.409Z,99.90
2018-05-23T06:51:44.860Z,99.90
2018-05-23T06:54:12.293Z,99.90
2018-05-23T06:56:39.752Z,99.90
2018-05-23T06:59:07.202Z,99.90
2018-05-23T07:01:35.417Z,99.90
2018-05-23T07:04:02.894Z,99.90
2018-05-23T07:06:30.338Z,99.90
2018-05-23T07:08:58.771Z,99.90
2018-05-23T07:11:26.227Z,99.90
2018-05-23T07:13:53.673Z,99.90
2018-05-23T07:16:21.199Z,99.90
2018-05-23T07:18:48.658Z,99.90
2018-05-23T07:21:16.111Z,99.90
2018-05-23T07:23:43.537Z,99.90
2018-05-23T07:26:10.997Z,99.90
2018-05-23T07:28:38.433Z,99.90
2018-05-23T07:31:05.886Z,99.90
2018-05-23T07:33:33.342Z,99.90
2018-05-23T07:36:00.799Z,99.90
2018-05-23T07:38:28.326Z,99.90
2018-05-23T07:40:55.688Z,99.90
2018-05-23T07:43:23.900Z,99.90
2018-05-23T07:45:51.421Z,99.90
2018-05-23T07:48:19.561Z,99.90
2018-05-23T07:50:48.509Z,99.90
2018-05-23T07:53:15.953Z,99.90
2018-05-23T07:55:44.185Z,99.90
2018-05-23T07:58:12.390Z,99.90
2018-05-23T08:00:39.837Z,99.90
2018-05-23T08:03:08.426Z,99.90
2018-05-23T08:05:37.003Z,99.90
2018-05-23T08:08:04.458Z,99.90
2018-05-23T08:10:31.927Z,99.90
2018-05-23T08:13:00.885Z,99.90
2018-05-23T08:15:28.340Z,99.90
2018-05-23T08:17:55.808Z,99.90
2018-05-23T08:20:23.324Z,99.90
2018-05-23T08:22:50.741Z,99.90
2018-05-23T08:25:18.593Z,99.90
2018-05-23T08:27:46.048Z,99.90
2018-05-23T08:30:13.493Z,99.90
2018-05-23T08:32:40.956Z,99.90
2018-05-23T08:35:08.396Z,99.90
2018-05-23T08:37:36.596Z,99.90
2018-05-23T08:40:04.818Z,99.90
2018-05-23T08:42:32.256Z,99.90
2018-05-23T08:44:59.693Z,99.90
2018-05-23T08:47:27.926Z,99.90
2018-05-23T08:49:55.373Z,99.90
2018-05-23T08:52:22.805Z,99.90
2018-05-23T08:54:51.027Z,99.90
2018-05-23T08:57:18.472Z,99.90
2018-05-23T08:59:46.669Z,99.90
2018-05-23T09:02:14.129Z,99.90
2018-05-23T09:04:41.985Z,99.90
2018-05-23T09:07:10.920Z,99.90
2018-05-23T09:09:38.369Z,99.90
2018-05-23T09:12:06.607Z,99.90
2018-05-23T09:14:34.039Z,99.90
2018-05-23T09:17:01.492Z,99.90
2018-05-23T09:19:29.387Z,99.90
2018-05-23T09:21:57.576Z,99.90
2018-05-23T09:24:25.818Z,99.90
2018-05-23T09:26:53.326Z,99.90
2018-05-23T09:29:20.756Z,99.90
2018-05-23T09:31:49.345Z,99.90
2018-05-23T09:34:16.791Z,99.90
2018-05-23T09:36:44.244Z,99.90
2018-05-23T09:39:11.733Z,99.90
2018-05-23T09:41:40.058Z,99.90
2018-05-23T09:44:08.261Z,99.90
2018-05-23T09:46:35.711Z,99.90
2018-05-23T09:49:03.913Z,99.90
2018-05-23T09:51:32.137Z,99.90
2018-05-23T09:54:00.350Z,99.90
2018-05-23T09:56:27.824Z,99.90
2018-05-23T09:58:56.046Z,99.90
2018-05-23T10:01:23.496Z,99.90
2018-05-23T10:03:51.700Z,99.90
2018-05-23T10:06:19.170Z,99.90
2018-05-23T10:08:46.629Z,99.90
2018-05-23T10:11:14.465Z,99.90
2018-05-23T10:13:41.919Z,99.90
2018-05-23T10:16:09.780Z,99.90
2018-05-23T10:18:37.228Z,99.90
2018-05-23T10:21:04.656Z,99.90
2018-05-23T10:23:32.864Z,99.90
2018-05-23T10:26:00.312Z,99.90
2018-05-23T10:28:29.029Z,99.90
2018-05-23T10:30:57.276Z,99.90
2018-05-23T10:33:24.787Z,99.90
2018-05-23T10:35:52.141Z,99.90
2018-05-23T10:38:20.360Z,99.90
2018-05-23T10:40:47.786Z,99.90
2018-05-23T10:43:16.360Z,99.90
2018-05-23T10:45:43.800Z,99.90
2018-05-23T10:48:11.236Z,99.90
2018-05-23T10:50:38.676Z,99.90
2018-05-23T10:53:06.898Z,99.90
2018-05-23T10:55:34.322Z,99.90
2018-05-23T10:58:01.757Z,99.90
2018-05-23T11:00:29.212Z,99.90
2018-05-23T11:02:56.666Z,99.90
2018-05-23T11:05:24.849Z,99.90
2018-05-23T11:07:52.318Z,99.90
2018-05-23T11:10:19.747Z,99.90
2018-05-23T11:12:47.175Z,99.90
2018-05-23T11:15:14.657Z,99.90
2018-05-23T11:17:42.058Z,99.90
2018-05-23T11:20:10.249Z,99.90
2018-05-23T11:22:38.474Z,99.90
2018-05-23T11:25:05.913Z,99.90
2018-05-23T11:27:34.137Z,99.90
2018-05-23T11:30:02.336Z,99.90
2018-05-23T11:32:29.769Z,99.90
2018-05-23T11:34:57.232Z,99.90
2018-05-23T11:37:24.674Z,99.90
2018-05-23T11:39:52.864Z,99.90
2018-05-23T11:42:21.082Z,99.90
2018-05-23T11:44:48.531Z,99.90
2018-05-23T11:47:15.967Z,99.90
2018-05-23T11:49:43.796Z,99.90
2018-05-23T11:52:11.268Z,99.90
2018-05-23T11:54:39.492Z,99.90
2018-05-23T11:59:36.455Z,99.90
2018-05-23T12:02:04.653Z,99.90
2018-05-23T12:04:32.097Z,99.90
2018-05-23T12:06:59.553Z,99.90
2018-05-23T12:11:55.802Z,99.90
2018-05-23T12:14:23.996Z,99.90
2018-05-23T12:16:51.827Z,99.90
2018-05-23T12:19:19.256Z,99.90
2018-05-23T12:21:46.740Z,99.90
2018-05-23T12:24:14.180Z,99.90
2018-05-23T12:26:41.612Z,99.90
2018-05-23T12:29:09.056Z,99.90
2018-05-23T12:31:36.888Z,99.90
2018-05-23T12:34:04.331Z,99.90
2018-05-23T12:36:32.532Z,99.90
2018-05-23T12:38:59.973Z,99.90
2018-05-23T12:41:28.908Z,99.90
2018-05-23T12:43:56.352Z,99.90
2018-05-23T12:46:24.556Z,99.90
2018-05-23T12:48:51.980Z,99.90
2018-05-23T12:51:19.437Z,99.90
2018-05-23T12:53:47.376Z,99.90
2018-05-23T12:56:14.799Z,99.90
2018-05-23T12:58:42.252Z,99.90
2018-05-23T13:01:09.677Z,99.90
2018-05-23T13:03:37.113Z,99.90
2018-05-23T13:06:05.784Z,99.90
2018-05-23T13:08:33.544Z,99.90
2018-05-23T13:11:00.972Z,99.90
2018-05-23T13:13:28.408Z,99.90
2018-05-23T13:15:55.852Z,99.90
2018-05-23T13:18:23.294Z,99.90
2018-05-23T13:20:50.732Z,99.90
2018-05-23T13:23:18.939Z,99.90
2018-05-23T13:25:46.376Z,99.90
2018-05-23T13:28:13.812Z,99.90
2018-05-23T13:30:41.252Z,99.90
2018-05-23T13:33:08.693Z,99.90
2018-05-23T13:35:36.901Z,99.90
2018-05-23T13:38:04.340Z,99.90
2018-05-23T13:40:32.543Z,99.90
2018-05-23T13:42:59.986Z,99.90
2018-05-23T13:45:28.199Z,99.90
2018-05-23T13:47:55.640Z,99.90
2018-05-23T13:50:23.549Z,99.90
2018-05-23T13:52:50.961Z,99.90
2018-05-23T13:55:18.389Z,99.90
2018-05-23T13:57:45.824Z,99.90
2018-05-23T14:00:14.019Z,99.90
2018-05-23T14:02:41.448Z,99.90
2018-05-23T14:05:08.904Z,99.90
2018-05-23T14:07:36.336Z,99.90
2018-05-23T14:10:03.770Z,99.90
2018-05-23T14:12:31.987Z,99.90
2018-05-23T14:14:59.424Z,99.90
2018-05-23T14:17:28.356Z,99.90
2018-05-23T14:19:55.797Z,99.90
2018-05-23T14:22:23.999Z,99.90
2018-05-23T14:24:51.827Z,99.90
2018-05-23T14:27:19.277Z,99.90
2018-05-23T14:29:47.109Z,99.90
2018-05-23T14:32:15.324Z,99.90
2018-05-23T14:34:43.207Z,99.90
2018-05-23T14:37:11.792Z,99.90
2018-05-23T14:39:40.006Z,99.90
2018-05-23T14:42:08.213Z,99.90
2018-05-23T14:44:35.669Z,99.90
2018-05-23T14:47:03.101Z,99.90
2018-05-23T14:49:30.558Z,99.90
2018-05-23T14:51:57.978Z,99.90
2018-05-23T14:54:25.826Z,99.90
2018-05-23T14:56:54.031Z,99.90
2018-05-23T14:59:21.972Z,99.90
2018-05-23T15:01:50.156Z,99.90
2018-05-23T15:04:17.601Z,99.90
2018-05-23T15:06:45.799Z,99.90
2018-05-23T15:09:13.219Z,98.80
2018-05-23T15:11:40.692Z,99.90
2018-05-23T15:14:08.512Z,99.20
2018-05-23T15:16:35.960Z,98.90
2018-05-23T15:19:04.175Z,97.80
2018-05-23T15:21:31.608Z,99.90
2018-05-23T15:23:59.814Z,96.40
2018-05-23T15:26:27.257Z,94.70
2018-05-23T15:28:54.691Z,93.50
2018-05-23T15:31:22.196Z,93.90
2018-05-23T15:33:49.569Z,94.00
2018-05-23T15:36:17.404Z,93.80
2018-05-23T15:38:44.835Z,92.00
2018-05-23T15:41:12.289Z,93.60
2018-05-23T15:43:40.496Z,94.70
2018-05-23T15:46:08.690Z,94.70
2018-05-23T15:48:36.139Z,94.80
2018-05-23T15:51:04.018Z,95.50
2018-05-23T15:53:32.196Z,95.80
2018-05-23T15:56:00.040Z,96.20
2018-05-23T15:58:27.472Z,96.10
2018-05-23T16:00:54.905Z,95.60
2018-05-23T16:03:22.389Z,96.00
2018-05-23T16:05:49.823Z,96.40
2018-05-23T16:08:17.653Z,96.60
2018-05-23T16:10:45.497Z,96.10
2018-05-23T16:13:13.637Z,95.40
2018-05-23T16:15:41.079Z,96.90
2018-05-23T16:18:09.291Z,96.80
2018-05-23T16:20:36.793Z,97.80
2018-05-23T16:23:04.157Z,97.60
2018-05-23T16:25:32.363Z,98.30
2018-05-23T16:28:00.580Z,99.60
2018-05-23T16:30:28.763Z,99.90
2018-05-23T16:32:56.389Z,98.20
2018-05-23T16:35:25.413Z,96.40
2018-05-23T16:37:52.838Z,96.10
2018-05-23T16:40:20.272Z,93.80
2018-05-23T16:42:47.713Z,94.50
2018-05-23T16:45:15.184Z,94.90
2018-05-23T16:47:42.622Z,95.70
2018-05-23T16:50:10.044Z,96.30
2018-05-23T16:52:38.246Z,98.00
2018-05-23T16:55:05.699Z,97.60
2018-05-23T16:57:34.272Z,94.20
2018-05-23T17:00:01.714Z,92.60
2018-05-23T17:02:29.933Z,94.00
2018-05-23T17:04:57.372Z,92.50
2018-05-23T17:07:25.577Z,92.30
2018-05-23T17:09:53.020Z,92.60
2018-05-23T17:12:20.904Z,91.70
2018-05-23T17:14:48.374Z,92.50
2018-05-23T17:17:16.570Z,94.60
2018-05-23T17:19:44.004Z,92.80
2018-05-23T17:22:12.305Z,94.70
2018-05-23T17:24:40.518Z,94.10
2018-05-23T17:27:08.083Z,96.00
2018-05-23T17:29:35.528Z,94.30
2018-05-23T17:32:03.729Z,95.90
2018-05-23T17:34:31.164Z,96.20
2018-05-23T17:36:58.633Z,94.00
2018-05-23T17:39:26.077Z,96.50
2018-05-23T17:41:53.508Z,92.80
2018-05-23T17:44:21.708Z,93.80
2018-05-23T17:46:49.174Z,93.50
2018-05-23T17:49:17.816Z,94.90
2018-05-23T17:51:45.261Z,95.30
2018-05-23T17:54:13.549Z,95.10
2018-05-23T17:56:40.988Z,93.70
2018-05-23T17:59:09.188Z,94.60
2018-05-23T18:01:37.030Z,95.40
2018-05-23T18:04:04.852Z,95.40
2018-05-23T18:06:32.381Z,95.20
2018-05-23T18:08:59.735Z,94.40
2018-05-23T18:11:27.959Z,94.40
2018-05-23T18:13:55.372Z,95.80
2018-05-23T18:16:24.321Z,96.10
2018-05-23T18:18:52.540Z,96.10
2018-05-23T18:21:19.996Z,95.70
2018-05-23T18:23:47.456Z,95.50
2018-05-23T18:26:15.657Z,97.60
2018-05-23T18:28:43.869Z,96.20
2018-05-23T18:31:12.105Z,99.30
2018-05-23T18:33:41.052Z,98.10
2018-05-23T18:36:08.481Z,98.60
2018-05-23T18:38:35.921Z,98.40
2018-05-23T18:41:03.361Z,99.90
2018-05-23T18:43:30.930Z,99.90
2018-05-23T18:45:58.264Z,99.90
2018-05-23T18:48:26.456Z,99.90
2018-05-23T18:50:54.332Z,99.90
2018-05-23T18:53:21.785Z,99.90
2018-05-23T18:55:50.347Z,99.90
2018-05-23T18:58:18.551Z,99.90
2018-05-23T19:00:45.997Z,99.90
2018-05-23T19:03:13.437Z,99.90
2018-05-23T19:05:42.386Z,99.90
2018-05-23T19:08:09.845Z,99.90
2018-05-23T19:10:37.256Z,99.90
2018-05-23T19:13:04.735Z,99.90
2018-05-23T19:15:32.152Z,99.90
2018-05-23T19:17:59.590Z,99.90
2018-05-23T19:20:27.787Z,99.90
2018-05-23T19:22:56.016Z,99.90
2018-05-23T19:25:23.457Z,99.90
2018-05-23T19:27:51.286Z,99.90
2018-05-23T19:30:18.738Z,99.90
2018-05-23T19:32:46.176Z,99.90
2018-05-23T19:35:13.618Z,99.90
2018-05-23T19:37:41.834Z,99.90
2018-05-23T19:40:09.265Z,99.90
2018-05-23T19:42:38.217Z,99.90
2018-05-23T19:45:05.655Z,99.90
2018-05-23T19:47:33.089Z,99.90
2018-05-23T19:50:00.548Z,99.90
2018-05-23T19:52:28.078Z,99.90
2018-05-23T19:54:55.442Z,99.90
2018-05-23T19:57:22.888Z,99.90
2018-05-23T19:59:51.095Z,99.90
2018-05-23T20:02:18.524Z,99.90
2018-05-23T20:04:46.728Z,99.90
2018-05-23T20:07:19.192Z,99.90
2018-05-23T20:09:46.642Z,99.90
2018-05-23T20:12:14.078Z,99.90
2018-05-23T20:14:41.543Z,99.90
2018-05-23T20:17:09.751Z,99.90
2018-05-23T20:19:37.187Z,99.90
2018-05-23T20:22:04.624Z,99.90
2018-05-23T20:24:32.828Z,99.90
2018-05-23T20:27:00.280Z,99.90
2018-05-23T20:29:28.549Z,99.90
2018-05-23T20:31:55.978Z,99.90
2018-05-23T20:34:23.411Z,99.90
2018-05-23T20:36:51.629Z,99.90
2018-05-23T20:39:19.061Z,99.90
2018-05-23T20:41:48.022Z,99.90
2018-05-23T20:44:15.495Z,99.90
2018-05-23T20:46:42.951Z,99.90
2018-05-23T20:49:10.395Z,99.90
2018-05-23T20:51:37.845Z,99.90
2018-05-23T20:56:34.844Z,99.90
2018-05-23T20:59:02.301Z,99.90
2018-05-23T21:01:29.786Z,99.90
2018-05-23T21:03:57.965Z,99.90
2018-05-23T21:06:26.197Z,99.90
2018-05-23T21:08:53.642Z,99.90
2018-05-23T21:11:21.081Z,99.90
2018-05-23T21:13:48.537Z,99.90
2018-05-23T21:16:15.983Z,99.90
2018-05-23T21:18:43.425Z,99.90
2018-05-23T21:21:10.880Z,99.90
2018-05-23T21:23:38.316Z,99.90
2018-05-23T21:26:06.159Z,99.90
2018-05-23T21:28:33.992Z,99.90
2018-05-23T21:31:01.436Z,99.90
2018-05-23T21:33:29.648Z,99.90
2018-05-23T21:35:57.313Z,99.90
2018-05-23T21:38:24.751Z,99.90
2018-05-23T21:40:52.952Z,99.90
2018-05-23T21:43:20.413Z,99.90
2018-05-23T21:45:48.240Z,99.90
2018-05-23T21:48:15.672Z,99.90
2018-05-23T21:50:43.128Z,99.90
2018-05-23T21:53:12.075Z,99.90
2018-05-23T21:55:40.654Z,99.90
2018-05-23T21:58:08.506Z,99.90
2018-05-23T22:00:35.938Z,99.90
2018-05-23T22:03:03.379Z,99.90
2018-05-23T22:05:31.233Z,99.90
2018-05-23T22:07:58.664Z,99.90
2018-05-23T22:10:26.872Z,99.90
2018-05-23T22:12:54.315Z,99.90
2018-05-23T22:15:22.526Z,99.90
2018-05-23T22:17:49.961Z,99.90
2018-05-23T22:20:17.435Z,99.90
2018-05-23T22:22:44.894Z,99.90
2018-05-23T22:25:12.329Z,99.90
2018-05-23T22:27:39.784Z,99.90
2018-05-23T22:30:07.616Z,99.90
2018-05-23T22:32:35.065Z,99.90
2018-05-23T22:35:03.297Z,99.90
2018-05-23T22:37:30.739Z,99.90
2018-05-23T22:39:58.186Z,99.90
2018-05-23T22:42:25.629Z,99.90
2018-05-23T22:44:53.068Z,99.90
2018-05-23T22:47:20.496Z,99.90
2018-05-23T22:49:47.952Z,99.90
2018-05-23T22:52:15.792Z,99.90
2018-05-23T22:54:43.247Z,99.90
2018-05-23T22:57:11.460Z,99.90
2018-05-23T22:59:38.914Z,99.90
2018-05-23T23:02:06.389Z,99.90
2018-05-23T23:07:03.367Z,99.90
2018-05-23T23:09:30.809Z,99.90
2018-05-23T23:11:58.284Z,99.90
2018-05-23T23:14:26.489Z,99.90
2018-05-23T23:16:53.927Z,99.90
2018-05-23T23:19:21.377Z,99.90
2018-05-23T23:21:48.812Z,99.90
2018-05-23T23:24:16.248Z,99.90
2018-05-23T23:26:44.465Z,99.90
2018-05-23T23:29:11.900Z,99.90
2018-05-23T23:31:40.118Z,99.90
2018-05-23T23:34:07.612Z,99.90
2018-05-23T23:36:35.148Z,99.90
2018-05-23T23:39:03.334Z,99.90
2018-05-23T23:41:30.800Z,99.90
2018-05-23T23:43:58.268Z,99.90
2018-05-23T23:46:25.684Z,99.90
2018-05-23T23:48:53.137Z,99.90
2018-05-23T23:51:20.584Z,99.90
2018-05-23T23:53:48.038Z,99.90
2018-05-23T23:56:16.875Z,99.90
2018-05-23T23:58:44.327Z,99.90
